createdAt,value
2023-02-06T00:01:43.373Z,8.00
2023-02-06T00:04:10.855Z,7.83
2023-02-06T00:06:38.134Z,8.23
2023-02-06T00:09:06.492Z,8.07
2023-02-06T00:11:34.427Z,7.40
2023-02-06T00:14:02.344Z,8.30
2023-02-06T00:16:32.699Z,8.93
2023-02-06T00:19:00.865Z,8.37
2023-02-06T00:21:29.380Z,6.90
2023-02-06T00:23:59.896Z,7.93
2023-02-06T00:26:27.684Z,8.30
2023-02-06T00:28:54.948Z,9.00
2023-02-06T00:31:22.318Z,8.10
2023-02-06T00:33:49.547Z,7.43
2023-02-06T00:36:17.394Z,8.20
2023-02-06T00:38:44.539Z,7.90
2023-02-06T00:41:11.902Z,8.97
2023-02-06T00:43:43.603Z,7.87
2023-02-06T00:46:10.933Z,8.83
2023-02-06T00:48:38.196Z,8.30
2023-02-06T00:51:08.175Z,7.97
2023-02-06T00:53:35.509Z,8.80
2023-02-06T00:56:02.762Z,8.13
2023-02-06T00:58:29.964Z,8.33
2023-02-06T01:00:57.081Z,7.50
2023-02-06T01:03:24.310Z,8.33
2023-02-06T01:05:51.667Z,8.10
2023-02-06T01:08:18.828Z,8.90
2023-02-06T01:10:45.950Z,8.53
2023-02-06T01:13:13.812Z,8.37
2023-02-06T01:15:41.032Z,9.40
2023-02-06T01:18:11.769Z,8.87
2023-02-06T01:20:40.744Z,9.00
2023-02-06T01:23:08.450Z,8.77
2023-02-06T01:25:36.580Z,8.67
2023-02-06T01:28:04.236Z,9.67
2023-02-06T01:30:31.531Z,9.03
2023-02-06T01:32:58.847Z,10.23
2023-02-06T01:35:26.839Z,9.67
2023-02-06T01:37:53.951Z,8.47
2023-02-06T01:40:21.161Z,9.67
2023-02-06T01:42:48.792Z,8.87
2023-02-06T01:45:45.900Z,9.13
2023-02-06T01:48:39.675Z,8.90
2023-02-06T01:51:13.645Z,8.50
2023-02-06T01:53:48.384Z,8.67
2023-02-06T01:56:20.229Z,8.50
2023-02-06T01:58:53.644Z,9.80
2023-02-06T02:01:21.841Z,8.73
2023-02-06T02:03:54.459Z,9.47
2023-02-06T02:08:58.302Z,8.47
2023-02-06T02:11:43.879Z,9.10
2023-02-06T02:14:15.199Z,8.88
2023-02-06T02:17:11.013Z,8.63
2023-02-06T02:19:46.853Z,9.32
2023-02-06T02:22:32.645Z,10.37
2023-02-06T02:25:30.921Z,10.35
2023-02-06T02:28:57.809Z,8.73
2023-02-06T02:32:15.542Z,8.40
2023-02-06T02:35:20.719Z,9.67
2023-02-06T02:38:15.750Z,8.57
2023-02-06T02:40:51.846Z,9.47
2023-02-06T02:43:32.250Z,9.00
2023-02-06T02:46:19.407Z,9.73
2023-02-06T02:48:52.181Z,9.17
2023-02-06T02:51:19.622Z,8.73
2023-02-06T02:53:47.318Z,9.53
2023-02-06T02:56:23.856Z,9.20
2023-02-06T02:59:31.725Z,9.63
2023-02-06T03:02:08.123Z,9.07
2023-02-06T03:04:50.637Z,8.40
2023-02-06T03:07:45.511Z,9.23
2023-02-06T03:10:29.871Z,8.80
2023-02-06T03:13:08.164Z,9.20
2023-02-06T03:16:25.594Z,8.80
2023-02-06T03:19:06.456Z,10.13
2023-02-06T03:21:37.112Z,9.43
2023-02-06T03:24:13.322Z,8.50
2023-02-06T03:26:42.018Z,9.40
2023-02-06T03:29:15.578Z,9.83
2023-02-06T03:31:48.122Z,9.33
2023-02-06T03:34:55.915Z,10.90
2023-02-06T03:37:24.745Z,9.60
2023-02-06T03:39:52.060Z,9.67
2023-02-06T03:42:22.444Z,9.27
2023-02-06T03:45:07.640Z,8.83
2023-02-06T03:47:38.047Z,10.10
2023-02-06T03:50:09.210Z,9.17
2023-02-06T03:52:41.916Z,8.97
2023-02-06T03:55:16.207Z,8.80
2023-02-06T03:57:49.020Z,9.97
2023-02-06T04:00:16.678Z,9.77
2023-02-06T04:02:47.630Z,9.13
2023-02-06T04:05:18.749Z,9.50
2023-02-06T04:07:46.096Z,9.47
2023-02-06T04:10:13.326Z,8.93
2023-02-06T04:12:40.803Z,8.90
2023-02-06T04:15:08.361Z,9.80
2023-02-06T04:17:53.675Z,9.83
2023-02-06T04:20:22.919Z,9.10
2023-02-06T04:22:50.402Z,9.93
2023-02-06T04:25:17.762Z,10.33
2023-02-06T04:27:44.875Z,9.33
2023-02-06T04:30:13.237Z,9.00
2023-02-06T04:32:40.827Z,10.87
2023-02-06T04:35:12.523Z,8.90
2023-02-06T04:37:39.813Z,9.60
2023-02-06T04:40:07.522Z,8.63
2023-02-06T04:42:34.871Z,9.10
2023-02-06T04:45:02.178Z,9.80
2023-02-06T04:47:29.557Z,8.83
2023-02-06T04:49:56.650Z,10.37
2023-02-06T04:52:23.722Z,9.27
2023-02-06T04:54:50.953Z,9.77
2023-02-06T04:57:21.585Z,9.83
2023-02-06T04:59:48.807Z,9.57
2023-02-06T05:02:16.094Z,9.97
2023-02-06T05:04:43.280Z,9.30
2023-02-06T05:07:13.345Z,9.17
2023-02-06T05:09:40.447Z,8.97
2023-02-06T05:12:08.036Z,9.13
2023-02-06T05:14:35.189Z,8.77
2023-02-06T05:17:02.318Z,8.90
2023-02-06T05:19:32.476Z,9.37
2023-02-06T05:22:03.005Z,9.63
2023-02-06T05:24:32.755Z,10.30
2023-02-06T05:27:00.038Z,10.00
2023-02-06T05:29:27.551Z,10.20
2023-02-06T05:31:54.859Z,9.97
2023-02-06T05:34:22.136Z,10.07
2023-02-06T05:36:49.493Z,9.77
2023-02-06T05:39:16.949Z,10.00
2023-02-06T05:41:44.145Z,10.40
2023-02-06T05:44:11.280Z,8.63
2023-02-06T05:46:41.032Z,10.03
2023-02-06T05:49:08.138Z,10.17
2023-02-06T05:51:35.495Z,9.97
2023-02-06T05:54:02.890Z,10.10
2023-02-06T05:56:32.896Z,10.50
2023-02-06T05:59:00.112Z,10.10
2023-02-06T06:01:29.197Z,10.53
2023-02-06T06:03:56.505Z,10.07
2023-02-06T06:06:23.665Z,10.90
2023-02-06T06:08:50.843Z,10.00
2023-02-06T06:11:18.647Z,9.77
2023-02-06T06:13:46.615Z,10.43
2023-02-06T06:16:13.786Z,9.63
2023-02-06T06:18:40.992Z,10.57
2023-02-06T06:21:08.187Z,10.57
2023-02-06T06:23:35.376Z,10.20
2023-02-06T06:26:02.661Z,8.73
2023-02-06T06:28:29.904Z,10.43
2023-02-06T06:31:05.605Z,10.37
2023-02-06T06:33:33.541Z,8.95
2023-02-06T06:36:00.913Z,10.00
2023-02-06T06:38:31.567Z,9.57
2023-02-06T06:40:59.384Z,9.07
2023-02-06T06:43:26.900Z,10.33
2023-02-06T06:45:54.474Z,9.27
2023-02-06T06:48:22.328Z,9.03
2023-02-06T06:50:50.780Z,9.20
2023-02-06T06:53:18.313Z,9.70
2023-02-06T06:55:45.485Z,9.20
2023-02-06T06:58:15.177Z,9.97
2023-02-06T07:00:42.378Z,9.77
2023-02-06T07:03:09.678Z,9.57
2023-02-06T07:05:37.153Z,9.83
2023-02-06T07:08:07.282Z,10.23
2023-02-06T07:10:34.429Z,9.77
2023-02-06T07:13:01.751Z,10.13
2023-02-06T07:15:29.462Z,9.97
2023-02-06T07:17:56.625Z,10.90
2023-02-06T07:20:23.841Z,9.30
2023-02-06T07:22:51.302Z,10.87
2023-02-06T07:25:20.309Z,10.00
2023-02-06T07:27:48.285Z,10.40
2023-02-06T07:30:16.166Z,9.33
2023-02-06T07:32:44.395Z,9.60
2023-02-06T07:35:15.370Z,9.70
2023-02-06T07:37:45.729Z,10.30
2023-02-06T07:40:16.874Z,9.53
2023-02-06T07:42:44.049Z,9.77
2023-02-06T07:45:11.294Z,9.43
2023-02-06T07:47:38.528Z,9.57
2023-02-06T07:50:06.398Z,9.07
2023-02-06T07:52:33.678Z,10.00
2023-02-06T07:55:00.905Z,10.37
2023-02-06T07:57:28.233Z,9.93
2023-02-06T07:59:55.325Z,9.53
2023-02-06T08:02:22.691Z,9.63
2023-02-06T08:04:50.010Z,10.80
2023-02-06T08:07:17.995Z,10.43
2023-02-06T08:09:45.291Z,9.90
2023-02-06T08:12:12.529Z,10.20
2023-02-06T08:14:39.867Z,9.90
2023-02-06T08:17:07.870Z,10.50
2023-02-06T08:19:34.971Z,10.03
2023-02-06T08:22:02.323Z,10.37
2023-02-06T08:24:29.677Z,10.87
2023-02-06T08:26:56.973Z,9.50
2023-02-06T08:29:26.054Z,10.00
2023-02-06T08:31:53.486Z,10.30
2023-02-06T08:34:21.032Z,11.67
2023-02-06T08:36:48.428Z,11.30
2023-02-06T08:39:19.265Z,10.83
2023-02-06T08:41:46.455Z,10.63
2023-02-06T08:44:17.111Z,10.60
2023-02-06T08:46:47.747Z,10.13
2023-02-06T08:49:20.857Z,11.37
2023-02-06T08:51:51.284Z,10.50
2023-02-06T08:54:23.855Z,10.83
2023-02-06T08:56:52.706Z,10.40
2023-02-06T08:59:20.815Z,10.53
2023-02-06T09:01:49.383Z,10.73
2023-02-06T09:04:17.578Z,11.17
2023-02-06T09:06:48.878Z,10.53
2023-02-06T09:09:16.719Z,11.03
2023-02-06T09:11:47.619Z,11.50
2023-02-06T09:14:17.658Z,10.50
2023-02-06T09:16:45.109Z,12.03
2023-02-06T09:19:13.389Z,11.37
2023-02-06T09:21:41.083Z,10.27
2023-02-06T09:24:09.458Z,10.10
2023-02-06T09:26:58.549Z,10.17
2023-02-06T09:29:29.411Z,10.60
2023-02-06T09:32:00.472Z,10.60
2023-02-06T09:34:28.749Z,10.97
2023-02-06T09:36:56.871Z,10.70
2023-02-06T09:39:25.068Z,9.97
2023-02-06T09:42:22.329Z,10.73
2023-02-06T09:45:07.717Z,9.60
2023-02-06T09:47:41.552Z,10.27
2023-02-06T09:50:34.771Z,9.30
2023-02-06T09:53:36.114Z,9.30
2023-02-06T09:57:09.516Z,9.37
2023-02-06T09:59:45.138Z,9.53
2023-02-06T10:02:52.669Z,9.27
2023-02-06T10:05:25.568Z,9.63
2023-02-06T10:08:34.251Z,9.00
2023-02-06T10:11:40.744Z,10.10
2023-02-06T10:14:57.026Z,9.77
2023-02-06T10:17:36.052Z,9.43
2023-02-06T10:20:29.884Z,10.33
2023-02-06T10:23:19.096Z,10.23
2023-02-06T10:26:03.011Z,9.93
2023-02-06T10:28:35.390Z,8.83
2023-02-06T10:31:13.882Z,9.33
2023-02-06T10:34:29.052Z,10.40
2023-02-06T10:37:09.395Z,9.77
2023-02-06T10:40:13.449Z,9.73
2023-02-06T10:43:11.744Z,10.20
2023-02-06T10:46:29.143Z,9.27
2023-02-06T10:49:23.735Z,10.15
2023-02-06T10:51:57.159Z,10.27
2023-02-06T10:54:43.109Z,10.23
2023-02-06T10:57:22.027Z,9.87
2023-02-06T10:59:53.889Z,10.52
2023-02-06T11:02:30.556Z,9.60
2023-02-06T11:05:20.107Z,10.27
2023-02-06T11:07:52.869Z,10.07
2023-02-06T11:10:25.004Z,10.60
2023-02-06T11:13:15.809Z,10.83
2023-02-06T11:16:16.402Z,9.27
2023-02-06T11:18:49.082Z,9.70
2023-02-06T11:21:41.977Z,11.65
2023-02-06T11:24:12.695Z,10.77
2023-02-06T11:26:59.015Z,11.03
2023-02-06T11:29:37.099Z,9.88
2023-02-06T11:32:24.600Z,9.63
2023-02-06T11:34:59.329Z,10.10
2023-02-06T11:37:36.229Z,8.87
2023-02-06T11:40:27.286Z,9.50
2023-02-06T11:43:21.961Z,9.37
2023-02-06T11:46:04.730Z,9.20
2023-02-06T11:48:38.155Z,9.53
2023-02-06T11:51:07.609Z,9.50
2023-02-06T11:53:36.230Z,9.40
2023-02-06T11:56:21.014Z,9.33
2023-02-06T11:59:24.284Z,8.83
2023-02-06T12:01:55.403Z,8.55
2023-02-06T12:04:34.089Z,8.80
2023-02-06T12:07:16.847Z,8.73
2023-02-06T12:09:44.144Z,9.13
2023-02-06T12:12:32.756Z,8.63
2023-02-06T12:15:39.963Z,8.70
2023-02-06T12:18:15.988Z,9.33
2023-02-06T12:21:24.611Z,9.30
2023-02-06T12:24:03.510Z,9.83
2023-02-06T12:26:35.379Z,9.20
2023-02-06T12:29:24.132Z,8.83
2023-02-06T12:32:08.235Z,8.83
2023-02-06T12:34:53.599Z,9.77
2023-02-06T12:37:31.535Z,9.03
2023-02-06T12:40:00.685Z,9.63
2023-02-06T12:42:38.814Z,8.73
2023-02-06T12:45:25.622Z,9.80
2023-02-06T12:48:20.438Z,9.17
2023-02-06T12:51:01.462Z,9.13
2023-02-06T12:53:40.632Z,9.23
2023-02-06T12:56:45.907Z,9.23
2023-02-06T12:59:57.835Z,9.87
2023-02-06T13:03:25.357Z,10.80
2023-02-06T13:06:12.898Z,10.70
2023-02-06T13:09:01.006Z,10.07
2023-02-06T13:11:34.903Z,9.73
2023-02-06T13:14:19.603Z,8.47
2023-02-06T13:17:10.192Z,9.57
2023-02-06T13:19:37.306Z,9.57
2023-02-06T13:22:10.302Z,9.33
2023-02-06T13:24:40.396Z,8.87
2023-02-06T13:27:32.604Z,9.50
2023-02-06T13:30:29.685Z,9.97
2023-02-06T13:33:22.957Z,9.87
2023-02-06T13:36:04.683Z,10.07
2023-02-06T13:38:34.728Z,9.80
2023-02-06T13:41:16.676Z,10.20
2023-02-06T13:44:21.742Z,9.47
2023-02-06T13:47:11.739Z,9.80
2023-02-06T13:50:33.465Z,8.63
2023-02-06T13:53:25.576Z,10.33
2023-02-06T13:56:21.144Z,10.50
2023-02-06T13:58:55.052Z,10.37
2023-02-06T14:01:30.375Z,11.77
2023-02-06T14:03:59.623Z,10.48
2023-02-06T14:06:49.299Z,10.90
2023-02-06T14:09:30.749Z,9.13
2023-02-06T14:12:39.965Z,9.60
2023-02-06T14:15:51.340Z,9.53
2023-02-06T14:18:47.442Z,9.53
2023-02-06T14:22:00.031Z,9.93
2023-02-06T14:24:53.583Z,8.37
2023-02-06T14:27:48.358Z,9.23
2023-02-06T14:30:52.147Z,9.47
2023-02-06T14:33:43.829Z,8.53
2023-02-06T14:36:41.770Z,9.03
2023-02-06T14:39:40.253Z,8.90
2023-02-06T14:42:16.791Z,9.20
2023-02-06T14:44:50.627Z,9.83
2023-02-06T14:47:24.194Z,8.87
2023-02-06T14:49:53.415Z,8.90
2023-02-06T14:52:28.909Z,8.53
2023-02-06T14:54:56.345Z,10.50
2023-02-06T14:57:32.050Z,9.70
2023-02-06T15:00:06.127Z,9.73
2023-02-06T15:02:37.085Z,9.70
2023-02-06T15:05:05.918Z,10.73
2023-02-06T15:07:38.791Z,9.60
2023-02-06T15:10:18.343Z,8.90
2023-02-06T15:12:53.355Z,10.17
2023-02-06T15:15:25.684Z,10.50
2023-02-06T15:18:16.765Z,9.63
2023-02-06T15:20:51.845Z,9.20
2023-02-06T15:23:37.504Z,9.65
2023-02-06T15:26:29.913Z,10.18
2023-02-06T15:29:02.705Z,10.00
2023-02-06T15:31:31.413Z,9.07
2023-02-06T15:34:01.201Z,9.57
2023-02-06T15:36:38.999Z,10.10
2023-02-06T15:39:09.737Z,8.90
2023-02-06T15:41:39.500Z,9.67
2023-02-06T15:44:36.104Z,9.97
2023-02-06T15:47:13.492Z,9.80
2023-02-06T15:49:44.599Z,10.23
2023-02-06T15:52:15.005Z,10.20
2023-02-06T15:54:45.101Z,10.53
2023-02-06T15:57:38.001Z,9.97
2023-02-06T16:00:09.744Z,11.10
2023-02-06T16:02:39.711Z,10.97
2023-02-06T16:05:24.153Z,9.50
2023-02-06T16:07:51.842Z,9.90
2023-02-06T16:10:30.152Z,11.27
2023-02-06T16:13:01.654Z,9.83
2023-02-06T16:15:36.559Z,10.03
2023-02-06T16:18:34.146Z,10.43
2023-02-06T16:21:16.786Z,11.57
2023-02-06T16:24:03.404Z,10.73
2023-02-06T16:26:32.272Z,10.73
2023-02-06T16:29:11.592Z,11.23
2023-02-06T16:31:45.244Z,10.77
2023-02-06T16:34:39.204Z,12.43
2023-02-06T16:37:16.352Z,11.40
2023-02-06T16:39:44.991Z,10.83
2023-02-06T16:42:33.158Z,11.47
2023-02-06T16:45:08.001Z,11.00
2023-02-06T16:47:35.724Z,12.40
2023-02-06T16:50:03.900Z,13.13
2023-02-06T16:52:34.450Z,16.90
2023-02-06T16:55:02.496Z,18.93
2023-02-06T16:57:41.792Z,26.50
2023-02-06T17:03:17.509Z,39.20
2023-02-06T17:05:48.580Z,42.70
2023-02-06T17:08:23.213Z,41.57
2023-02-06T17:10:51.845Z,41.17
2023-02-06T17:13:24.491Z,40.23
2023-02-06T17:15:53.334Z,35.93
2023-02-06T17:18:23.223Z,35.93
2023-02-06T17:20:53.521Z,34.10
2023-02-06T17:23:22.192Z,30.30
2023-02-06T17:25:50.902Z,26.33
2023-02-06T17:28:20.655Z,22.73
2023-02-06T17:30:50.852Z,18.70
2023-02-06T17:33:18.675Z,16.23
2023-02-06T17:35:47.991Z,16.20
2023-02-06T17:38:15.667Z,16.00
2023-02-06T17:40:43.253Z,14.23
2023-02-06T17:43:11.003Z,13.77
2023-02-06T17:45:39.992Z,14.60
2023-02-06T17:48:08.329Z,14.00
2023-02-06T17:50:37.668Z,14.40
2023-02-06T17:53:07.562Z,13.77
2023-02-06T17:55:38.484Z,14.50
2023-02-06T17:58:06.512Z,14.73
2023-02-06T18:00:35.702Z,13.93
2023-02-06T18:03:05.235Z,15.00
2023-02-06T18:05:33.699Z,15.03
2023-02-06T18:08:01.689Z,13.90
2023-02-06T18:10:29.723Z,13.70
2023-02-06T18:12:57.850Z,15.17
2023-02-06T18:15:25.511Z,15.20
2023-02-06T18:17:54.844Z,15.47
2023-02-06T18:20:22.672Z,14.40
2023-02-06T18:22:51.444Z,14.70
2023-02-06T18:25:19.083Z,14.93
2023-02-06T18:27:46.651Z,16.30
2023-02-06T18:30:17.288Z,15.63
2023-02-06T18:32:48.619Z,13.87
2023-02-06T18:35:16.891Z,15.60
2023-02-06T18:37:48.166Z,16.80
2023-02-06T18:40:18.005Z,16.63
2023-02-06T18:42:52.266Z,15.80
2023-02-06T18:45:22.368Z,16.00
2023-02-06T18:47:51.932Z,14.53
2023-02-06T18:50:22.545Z,15.13
2023-02-06T18:52:51.763Z,15.40
2023-02-06T18:55:20.900Z,16.13
2023-02-06T18:57:53.139Z,14.67
2023-02-06T19:00:26.770Z,15.63
2023-02-06T19:02:55.746Z,18.77
2023-02-06T19:05:23.861Z,16.23
2023-02-06T19:07:53.885Z,17.33
2023-02-06T19:10:26.416Z,15.57
2023-02-06T19:12:55.410Z,16.87
2023-02-06T19:15:23.559Z,17.47
2023-02-06T19:17:51.982Z,18.60
2023-02-06T19:20:21.586Z,16.67
2023-02-06T19:22:49.565Z,16.63
2023-02-06T19:25:19.632Z,16.90
2023-02-06T19:27:48.299Z,16.30
2023-02-06T19:30:17.301Z,16.53
2023-02-06T19:32:48.934Z,16.30
2023-02-06T19:35:17.794Z,16.23
2023-02-06T19:37:45.941Z,16.47
2023-02-06T19:40:14.600Z,16.63
2023-02-06T19:42:46.006Z,16.40
2023-02-06T19:45:14.402Z,15.90
2023-02-06T19:47:42.988Z,16.70
2023-02-06T19:50:14.123Z,17.17
2023-02-06T19:52:44.436Z,17.43
2023-02-06T19:55:15.607Z,16.30
2023-02-06T19:57:45.444Z,16.93
2023-02-06T20:00:14.375Z,18.07
2023-02-06T20:02:43.126Z,19.00
2023-02-06T20:05:11.548Z,17.97
2023-02-06T20:07:43.027Z,18.93
2023-02-06T20:10:12.664Z,18.73
2023-02-06T20:12:41.253Z,18.37
2023-02-06T20:15:10.389Z,17.67
2023-02-06T20:17:43.623Z,17.63
2023-02-06T20:20:12.850Z,17.43
2023-02-06T20:22:40.732Z,17.90
2023-02-06T20:25:10.738Z,17.60
2023-02-06T20:27:38.908Z,16.63
2023-02-06T20:30:09.518Z,17.47
2023-02-06T20:32:37.732Z,17.07
2023-02-06T20:35:05.785Z,17.43
2023-02-06T20:37:33.068Z,16.90
2023-02-06T20:40:01.567Z,18.07
2023-02-06T20:42:29.616Z,17.57
2023-02-06T20:44:58.744Z,18.27
2023-02-06T20:47:27.249Z,17.83
2023-02-06T20:49:55.608Z,18.00
2023-02-06T20:52:23.913Z,18.10
2023-02-06T20:54:52.128Z,17.77
2023-02-06T20:57:20.470Z,18.67
2023-02-06T20:59:48.047Z,18.70
2023-02-06T21:02:16.238Z,19.07
2023-02-06T21:04:44.532Z,19.13
2023-02-06T21:07:12.312Z,18.33
2023-02-06T21:09:40.004Z,19.13
2023-02-06T21:12:08.217Z,19.27
2023-02-06T21:14:35.857Z,20.23
2023-02-06T21:17:03.506Z,20.77
2023-02-06T21:19:31.312Z,21.70
2023-02-06T21:21:58.909Z,22.50
2023-02-06T21:24:26.733Z,21.33
2023-02-06T21:26:54.267Z,22.33
2023-02-06T21:29:23.199Z,21.63
2023-02-06T21:31:55.729Z,22.20
2023-02-06T21:34:27.975Z,21.40
2023-02-06T21:36:55.343Z,21.57
2023-02-06T21:39:27.116Z,20.13
2023-02-06T21:41:57.254Z,20.90
2023-02-06T21:44:26.480Z,21.33
2023-02-06T21:46:54.076Z,21.23
2023-02-06T21:49:23.388Z,21.80
2023-02-06T21:51:51.675Z,21.23
2023-02-06T21:54:19.312Z,21.93
2023-02-06T21:56:46.561Z,20.77
2023-02-06T21:59:13.864Z,21.33
2023-02-06T22:01:41.335Z,22.97
2023-02-06T22:04:11.208Z,22.00
2023-02-06T22:06:39.038Z,21.70
2023-02-06T22:09:09.538Z,22.93
2023-02-06T22:11:39.635Z,20.47
2023-02-06T22:14:14.729Z,19.57
2023-02-06T22:16:42.691Z,22.02
2023-02-06T22:19:11.109Z,20.77
2023-02-06T22:21:39.294Z,21.83
2023-02-06T22:24:12.087Z,21.57
2023-02-06T22:26:39.584Z,21.93
2023-02-06T22:29:11.488Z,22.23
2023-02-06T22:31:40.441Z,22.23
2023-02-06T22:34:11.875Z,22.70
2023-02-06T22:36:39.628Z,21.37
2023-02-06T22:39:08.915Z,22.47
2023-02-06T22:41:43.715Z,23.27
2023-02-06T22:44:16.709Z,22.45
2023-02-06T22:46:51.440Z,20.23
2023-02-06T22:49:20.538Z,21.83
2023-02-06T22:51:48.254Z,20.87
2023-02-06T22:54:15.772Z,20.97
2023-02-06T22:56:43.939Z,20.83
2023-02-06T22:59:25.138Z,21.80
2023-02-06T23:01:58.204Z,22.10
2023-02-06T23:04:34.650Z,22.20
2023-02-06T23:07:02.235Z,22.90
2023-02-06T23:09:37.240Z,21.70
2023-02-06T23:12:05.661Z,21.35
2023-02-06T23:14:33.739Z,21.67
2023-02-06T23:17:03.107Z,21.93
2023-02-06T23:19:33.653Z,23.03
2023-02-06T23:22:01.015Z,21.20
2023-02-06T23:24:32.378Z,21.97
2023-02-06T23:26:59.663Z,20.43
2023-02-06T23:29:26.797Z,24.37
2023-02-06T23:31:55.595Z,23.67
2023-02-06T23:34:24.509Z,24.10
2023-02-06T23:36:52.189Z,22.80
2023-02-06T23:39:19.751Z,24.13
2023-02-06T23:41:47.111Z,22.63
2023-02-06T23:44:14.381Z,22.57
2023-02-06T23:46:41.830Z,23.13
2023-02-06T23:49:10.425Z,24.23
2023-02-06T23:51:38.164Z,23.47
2023-02-06T23:54:07.051Z,25.17
2023-02-06T23:56:34.848Z,23.07
2023-02-06T23:59:04.340Z,23.77
